sensor_id;sensor_type;location;lat;lon;timestamp;temperature;humidity
25112;DHT22;13092;51.996;4.458;2022-10-13T00:00:15;13.90;99.90
25112;DHT22;13092;51.996;4.458;2022-10-13T00:02:44;13.90;99.90
25112;DHT22;13092;51.996;4.458;2022-10-13T00:05:12;14.10;99.90
25112;DHT22;13092;51.996;4.458;2022-10-13T00:07:43;13.90;99.90
25112;DHT22;13092;51.996;4.458;2022-10-13T00:10:12;13.90;99.90
25112;DHT22;13092;51.996;4.458;2022-10-13T00:12:40;14.00;99.90
25112;DHT22;13092;51.996;4.458;2022-10-13T00:15:10;14.00;99.90
25112;DHT22;13092;51.996;4.458;2022-10-13T00:17:42;14.00;99.90
25112;DHT22;13092;51.996;4.458;2022-10-13T00:20:13;14.00;99.90
25112;DHT22;13092;51.996;4.458;2022-10-13T00:22:41;14.10;99.90
25112;DHT22;13092;51.996;4.458;2022-10-13T00:25:11;14.10;99.90
25112;DHT22;13092;51.996;4.458;2022-10-13T00:27:42;13.90;99.90
25112;DHT22;13092;51.996;4.458;2022-10-13T00:30:14;14.00;99.90
25112;DHT22;13092;51.996;4.458;2022-10-13T00:32:49;14.00;99.90
25112;DHT22;13092;51.996;4.458;2022-10-13T00:35:18;14.00;99.90
25112;DHT22;13092;51.996;4.458;2022-10-13T00:37:46;14.00;99.90
25112;DHT22;13092;51.996;4.458;2022-10-13T00:40:15;14.10;99.90
25112;DHT22;13092;51.996;4.458;2022-10-13T00:42:45;14.10;99.90
25112;DHT22;13092;51.996;4.458;2022-10-13T00:45:23;14.10;99.90
25112;DHT22;13092;51.996;4.458;2022-10-13T00:48:02;13.90;99.90
25112;DHT22;13092;51.996;4.458;2022-10-13T00:50:34;14.00;99.90
25112;DHT22;13092;51.996;4.458;2022-10-13T00:53:05;14.10;99.90
25112;DHT22;13092;51.996;4.458;2022-10-13T00:55:39;14.10;99.90
25112;DHT22;13092;51.996;4.458;2022-10-13T00:58:14;14.20;99.90
25112;DHT22;13092;51.996;4.458;2022-10-13T01:00:58;14.10;99.90
25112;DHT22;13092;51.996;4.458;2022-10-13T01:03:29;14.00;99.90
25112;DHT22;13092;51.996;4.458;2022-10-13T01:06:00;14.20;99.90
25112;DHT22;13092;51.996;4.458;2022-10-13T01:08:36;14.20;99.90
25112;DHT22;13092;51.996;4.458;2022-10-13T01:11:25;14.20;99.90
25112;DHT22;13092;51.996;4.458;2022-10-13T01:14:04;14.20;99.90
25112;DHT22;13092;51.996;4.458;2022-10-13T01:16:39;14.20;99.90
25112;DHT22;13092;51.996;4.458;2022-10-13T01:19:51;14.20;99.90
25112;DHT22;13092;51.996;4.458;2022-10-13T01:22:44;14.20;99.90
25112;DHT22;13092;51.996;4.458;2022-10-13T01:25:28;14.30;99.90
25112;DHT22;13092;51.996;4.458;2022-10-13T01:28:14;14.10;99.90
25112;DHT22;13092;51.996;4.458;2022-10-13T01:30:49;14.50;99.90
25112;DHT22;13092;51.996;4.458;2022-10-13T01:33:25;14.30;99.90
25112;DHT22;13092;51.996;4.458;2022-10-13T01:36:06;14.30;99.90
25112;DHT22;13092;51.996;4.458;2022-10-13T01:38:44;14.30;99.90
25112;DHT22;13092;51.996;4.458;2022-10-13T01:41:19;14.30;99.90
25112;DHT22;13092;51.996;4.458;2022-10-13T01:43:51;14.30;99.90
25112;DHT22;13092;51.996;4.458;2022-10-13T01:46:25;14.30;99.90
25112;DHT22;13092;51.996;4.458;2022-10-13T01:48:57;14.40;99.90
25112;DHT22;13092;51.996;4.458;2022-10-13T01:51:28;14.30;99.90
25112;DHT22;13092;51.996;4.458;2022-10-13T01:53:58;14.30;99.90
25112;DHT22;13092;51.996;4.458;2022-10-13T01:56:26;14.20;99.90
25112;DHT22;13092;51.996;4.458;2022-10-13T01:58:55;14.30;99.90
25112;DHT22;13092;51.996;4.458;2022-10-13T02:01:36;14.30;99.90
25112;DHT22;13092;51.996;4.458;2022-10-13T02:04:16;14.30;99.90
25112;DHT22;13092;51.996;4.458;2022-10-13T02:06:52;14.30;99.90
25112;DHT22;13092;51.996;4.458;2022-10-13T02:09:26;14.40;99.90
25112;DHT22;13092;51.996;4.458;2022-10-13T02:12:02;14.40;99.90
25112;DHT22;13092;51.996;4.458;2022-10-13T02:14:36;14.20;99.90
25112;DHT22;13092;51.996;4.458;2022-10-13T02:17:07;14.30;99.90
25112;DHT22;13092;51.996;4.458;2022-10-13T02:19:37;14.20;99.90
25112;DHT22;13092;51.996;4.458;2022-10-13T02:22:07;14.30;99.90
25112;DHT22;13092;51.996;4.458;2022-10-13T02:24:36;14.30;99.90
25112;DHT22;13092;51.996;4.458;2022-10-13T02:27:05;14.30;99.90
25112;DHT22;13092;51.996;4.458;2022-10-13T02:29:48;14.30;99.90
25112;DHT22;13092;51.996;4.458;2022-10-13T02:32:18;14.40;99.90
25112;DHT22;13092;51.996;4.458;2022-10-13T02:34:49;14.40;99.90
25112;DHT22;13092;51.996;4.458;2022-10-13T02:37:18;14.30;99.90
25112;DHT22;13092;51.996;4.458;2022-10-13T02:39:46;14.40;99.90
25112;DHT22;13092;51.996;4.458;2022-10-13T02:42:15;14.40;99.90
25112;DHT22;13092;51.996;4.458;2022-10-13T02:44:47;14.40;99.90
25112;DHT22;13092;51.996;4.458;2022-10-13T02:47:15;14.40;99.90
25112;DHT22;13092;51.996;4.458;2022-10-13T02:49:48;14.40;99.90
25112;DHT22;13092;51.996;4.458;2022-10-13T02:52:20;14.40;99.90
25112;DHT22;13092;51.996;4.458;2022-10-13T02:54:54;14.40;99.90
25112;DHT22;13092;51.996;4.458;2022-10-13T02:57:26;14.20;99.90
25112;DHT22;13092;51.996;4.458;2022-10-13T02:59:56;14.30;99.90
25112;DHT22;13092;51.996;4.458;2022-10-13T03:02:27;14.30;99.90
25112;DHT22;13092;51.996;4.458;2022-10-13T03:05:01;14.30;99.90
25112;DHT22;13092;51.996;4.458;2022-10-13T03:07:39;14.30;99.90
25112;DHT22;13092;51.996;4.458;2022-10-13T03:10:12;14.30;99.90
25112;DHT22;13092;51.996;4.458;2022-10-13T03:12:49;14.40;99.90
25112;DHT22;13092;51.996;4.458;2022-10-13T03:15:20;14.30;99.90
25112;DHT22;13092;51.996;4.458;2022-10-13T03:17:49;14.50;99.90
25112;DHT22;13092;51.996;4.458;2022-10-13T03:20:19;14.40;99.90
25112;DHT22;13092;51.996;4.458;2022-10-13T03:22:51;14.50;99.90
25112;DHT22;13092;51.996;4.458;2022-10-13T03:25:20;14.50;99.90
25112;DHT22;13092;51.996;4.458;2022-10-13T03:27:50;14.50;99.90
25112;DHT22;13092;51.996;4.458;2022-10-13T03:30:19;14.50;99.90
25112;DHT22;13092;51.996;4.458;2022-10-13T03:32:48;14.50;99.90
25112;DHT22;13092;51.996;4.458;2022-10-13T03:35:18;14.50;99.90
25112;DHT22;13092;51.996;4.458;2022-10-13T03:37:46;14.50;99.90
25112;DHT22;13092;51.996;4.458;2022-10-13T03:40:15;14.70;99.90
25112;DHT22;13092;51.996;4.458;2022-10-13T03:42:43;14.60;99.90
25112;DHT22;13092;51.996;4.458;2022-10-13T03:45:12;14.60;99.90
25112;DHT22;13092;51.996;4.458;2022-10-13T03:47:41;14.60;99.90
25112;DHT22;13092;51.996;4.458;2022-10-13T03:50:10;14.60;99.90
25112;DHT22;13092;51.996;4.458;2022-10-13T03:52:40;14.60;99.90
25112;DHT22;13092;51.996;4.458;2022-10-13T03:55:08;14.60;99.90
25112;DHT22;13092;51.996;4.458;2022-10-13T03:57:39;14.50;99.90
25112;DHT22;13092;51.996;4.458;2022-10-13T04:00:11;14.50;99.90
25112;DHT22;13092;51.996;4.458;2022-10-13T04:02:42;14.50;99.90
25112;DHT22;13092;51.996;4.458;2022-10-13T04:05:12;14.60;99.90
25112;DHT22;13092;51.996;4.458;2022-10-13T04:07:45;14.60;99.90
25112;DHT22;13092;51.996;4.458;2022-10-13T04:10:14;14.70;99.90
25112;DHT22;13092;51.996;4.458;2022-10-13T04:12:42;14.60;99.90
25112;DHT22;13092;51.996;4.458;2022-10-13T04:15:11;14.50;99.90
25112;DHT22;13092;51.996;4.458;2022-10-13T04:17:39;14.60;99.90
25112;DHT22;13092;51.996;4.458;2022-10-13T04:20:09;14.60;99.90
25112;DHT22;13092;51.996;4.458;2022-10-13T04:22:37;14.60;99.90
25112;DHT22;13092;51.996;4.458;2022-10-13T04:25:08;14.50;99.90
25112;DHT22;13092;51.996;4.458;2022-10-13T04:27:40;14.60;99.90
25112;DHT22;13092;51.996;4.458;2022-10-13T04:30:12;14.40;99.90
25112;DHT22;13092;51.996;4.458;2022-10-13T04:32:44;14.60;99.90
25112;DHT22;13092;51.996;4.458;2022-10-13T04:35:13;14.60;99.90
25112;DHT22;13092;51.996;4.458;2022-10-13T04:37:41;14.60;99.90
25112;DHT22;13092;51.996;4.458;2022-10-13T04:40:12;14.60;99.90
25112;DHT22;13092;51.996;4.458;2022-10-13T04:42:41;14.60;99.90
25112;DHT22;13092;51.996;4.458;2022-10-13T04:45:12;14.60;99.90
25112;DHT22;13092;51.996;4.458;2022-10-13T04:47:41;14.60;99.90
25112;DHT22;13092;51.996;4.458;2022-10-13T04:50:10;14.60;99.90
25112;DHT22;13092;51.996;4.458;2022-10-13T04:52:38;14.70;99.90
25112;DHT22;13092;51.996;4.458;2022-10-13T04:55:07;14.60;99.90
25112;DHT22;13092;51.996;4.458;2022-10-13T04:57:37;14.60;99.90
25112;DHT22;13092;51.996;4.458;2022-10-13T05:00:10;14.60;99.90
25112;DHT22;13092;51.996;4.458;2022-10-13T05:03:07;14.60;99.90
25112;DHT22;13092;51.996;4.458;2022-10-13T05:06:43;14.60;99.90
25112;DHT22;13092;51.996;4.458;2022-10-13T05:09:05;14.60;99.90
25112;DHT22;13092;51.996;4.458;2022-10-13T05:11:34;14.70;99.90
25112;DHT22;13092;51.996;4.458;2022-10-13T05:14:04;14.60;99.90
25112;DHT22;13092;51.996;4.458;2022-10-13T05:16:33;14.60;99.90
25112;DHT22;13092;51.996;4.458;2022-10-13T05:19:01;14.60;99.90
25112;DHT22;13092;51.996;4.458;2022-10-13T05:21:30;14.60;99.90
25112;DHT22;13092;51.996;4.458;2022-10-13T05:23:58;14.60;99.90
25112;DHT22;13092;51.996;4.458;2022-10-13T05:26:28;14.60;99.90
25112;DHT22;13092;51.996;4.458;2022-10-13T05:29:01;14.60;99.90
25112;DHT22;13092;51.996;4.458;2022-10-13T05:31:33;14.50;99.90
25112;DHT22;13092;51.996;4.458;2022-10-13T05:34:05;14.60;99.90
25112;DHT22;13092;51.996;4.458;2022-10-13T05:36:34;14.60;99.90
25112;DHT22;13092;51.996;4.458;2022-10-13T05:39:06;14.60;99.90
25112;DHT22;13092;51.996;4.458;2022-10-13T05:42:05;14.60;99.90
25112;DHT22;13092;51.996;4.458;2022-10-13T05:48:08;14.70;99.90
25112;DHT22;13092;51.996;4.458;2022-10-13T05:50:41;14.90;99.90
25112;DHT22;13092;51.996;4.458;2022-10-13T05:53:25;14.80;99.90
25112;DHT22;13092;51.996;4.458;2022-10-13T05:56:10;14.80;99.90
25112;DHT22;13092;51.996;4.458;2022-10-13T05:58:53;14.90;99.90
25112;DHT22;13092;51.996;4.458;2022-10-13T06:01:49;14.90;99.90
25112;DHT22;13092;51.996;4.458;2022-10-13T06:04:27;14.90;99.90
25112;DHT22;13092;51.996;4.458;2022-10-13T06:07:15;14.90;99.90
25112;DHT22;13092;51.996;4.458;2022-10-13T06:10:19;14.90;99.90
25112;DHT22;13092;51.996;4.458;2022-10-13T06:12:55;14.90;99.90
25112;DHT22;13092;51.996;4.458;2022-10-13T06:15:50;14.80;99.90
25112;DHT22;13092;51.996;4.458;2022-10-13T06:18:27;14.90;99.90
25112;DHT22;13092;51.996;4.458;2022-10-13T06:21:09;14.80;99.90
25112;DHT22;13092;51.996;4.458;2022-10-13T06:23:42;14.80;99.90
25112;DHT22;13092;51.996;4.458;2022-10-13T06:26:16;14.80;99.90
25112;DHT22;13092;51.996;4.458;2022-10-13T06:28:52;14.80;99.90
25112;DHT22;13092;51.996;4.458;2022-10-13T06:31:56;14.80;99.90
25112;DHT22;13092;51.996;4.458;2022-10-13T06:35:06;14.70;99.90
25112;DHT22;13092;51.996;4.458;2022-10-13T06:37:58;14.80;99.90
25112;DHT22;13092;51.996;4.458;2022-10-13T06:40:54;14.80;99.90
25112;DHT22;13092;51.996;4.458;2022-10-13T06:44:10;14.80;99.90
25112;DHT22;13092;51.996;4.458;2022-10-13T06:47:04;14.80;99.90
25112;DHT22;13092;51.996;4.458;2022-10-13T06:49:51;14.80;99.90
25112;DHT22;13092;51.996;4.458;2022-10-13T06:52:35;14.70;99.90
25112;DHT22;13092;51.996;4.458;2022-10-13T06:55:23;14.80;99.90
25112;DHT22;13092;51.996;4.458;2022-10-13T06:58:18;14.80;99.90
25112;DHT22;13092;51.996;4.458;2022-10-13T07:00:58;14.80;99.90
25112;DHT22;13092;51.996;4.458;2022-10-13T07:03:39;14.80;99.90
25112;DHT22;13092;51.996;4.458;2022-10-13T07:06:37;14.80;99.90
25112;DHT22;13092;51.996;4.458;2022-10-13T07:09:22;14.90;99.90
25112;DHT22;13092;51.996;4.458;2022-10-13T07:15:50;15.00;99.90
25112;DHT22;13092;51.996;4.458;2022-10-13T07:18:45;15.00;99.90
25112;DHT22;13092;51.996;4.458;2022-10-13T07:21:36;15.00;99.90
25112;DHT22;13092;51.996;4.458;2022-10-13T07:24:31;14.90;99.90
25112;DHT22;13092;51.996;4.458;2022-10-13T07:27:17;15.00;99.90
25112;DHT22;13092;51.996;4.458;2022-10-13T07:30:07;14.90;99.90
25112;DHT22;13092;51.996;4.458;2022-10-13T07:33:27;14.90;99.90
25112;DHT22;13092;51.996;4.458;2022-10-13T07:36:12;15.00;99.90
25112;DHT22;13092;51.996;4.458;2022-10-13T07:39:04;15.00;99.90
25112;DHT22;13092;51.996;4.458;2022-10-13T07:41:43;15.00;99.90
25112;DHT22;13092;51.996;4.458;2022-10-13T07:44:44;15.10;99.90
25112;DHT22;13092;51.996;4.458;2022-10-13T07:48:16;15.20;99.90
25112;DHT22;13092;51.996;4.458;2022-10-13T07:51:37;15.20;99.90
25112;DHT22;13092;51.996;4.458;2022-10-13T07:54:32;15.20;99.90
25112;DHT22;13092;51.996;4.458;2022-10-13T07:57:50;15.10;99.90
25112;DHT22;13092;51.996;4.458;2022-10-13T08:02:16;15.20;99.90
25112;DHT22;13092;51.996;4.458;2022-10-13T08:05:12;15.20;99.90
25112;DHT22;13092;51.996;4.458;2022-10-13T08:08:57;15.30;99.90
25112;DHT22;13092;51.996;4.458;2022-10-13T08:12:18;15.30;99.90
25112;DHT22;13092;51.996;4.458;2022-10-13T08:15:15;15.30;99.90
25112;DHT22;13092;51.996;4.458;2022-10-13T08:18:38;15.30;99.90
25112;DHT22;13092;51.996;4.458;2022-10-13T08:28:52;15.30;99.90
25112;DHT22;13092;51.996;4.458;2022-10-13T08:35:17;15.40;99.90
25112;DHT22;13092;51.996;4.458;2022-10-13T08:38:15;15.50;99.90
25112;DHT22;13092;51.996;4.458;2022-10-13T08:41:46;15.50;99.90
25112;DHT22;13092;51.996;4.458;2022-10-13T08:44:51;15.50;99.90
25112;DHT22;13092;51.996;4.458;2022-10-13T08:52:19;15.60;99.90
25112;DHT22;13092;51.996;4.458;2022-10-13T09:09:13;15.60;99.90
25112;DHT22;13092;51.996;4.458;2022-10-13T09:12:35;15.60;99.90
25112;DHT22;13092;51.996;4.458;2022-10-13T09:15:46;15.50;99.90
25112;DHT22;13092;51.996;4.458;2022-10-13T09:18:29;15.70;99.90
25112;DHT22;13092;51.996;4.458;2022-10-13T09:36:05;16.00;99.90
25112;DHT22;13092;51.996;4.458;2022-10-13T09:42:54;16.20;99.90
25112;DHT22;13092;51.996;4.458;2022-10-13T09:46:11;16.30;99.90
25112;DHT22;13092;51.996;4.458;2022-10-13T09:52:50;16.40;99.90
25112;DHT22;13092;51.996;4.458;2022-10-13T09:56:17;16.40;99.90
25112;DHT22;13092;51.996;4.458;2022-10-13T09:59:53;16.40;99.90
25112;DHT22;13092;51.996;4.458;2022-10-13T10:50:40;16.80;99.90
25112;DHT22;13092;51.996;4.458;2022-10-13T11:02:58;16.80;99.90
25112;DHT22;13092;51.996;4.458;2022-10-13T11:10:50;16.80;99.90
25112;DHT22;13092;51.996;4.458;2022-10-13T11:15:00;16.70;99.90
25112;DHT22;13092;51.996;4.458;2022-10-13T11:25:54;16.70;99.90
25112;DHT22;13092;51.996;4.458;2022-10-13T14:01:01;15.60;99.90
25112;DHT22;13092;51.996;4.458;2022-10-13T14:03:30;15.30;99.90
25112;DHT22;13092;51.996;4.458;2022-10-13T14:05:58;15.20;99.90
25112;DHT22;13092;51.996;4.458;2022-10-13T14:08:28;15.00;99.90
25112;DHT22;13092;51.996;4.458;2022-10-13T14:10:57;15.00;99.90
25112;DHT22;13092;51.996;4.458;2022-10-13T14:13:25;14.80;99.90
25112;DHT22;13092;51.996;4.458;2022-10-13T14:15:56;14.70;99.90
25112;DHT22;13092;51.996;4.458;2022-10-13T14:18:27;14.70;99.90
25112;DHT22;13092;51.996;4.458;2022-10-13T14:20:57;14.50;99.90
25112;DHT22;13092;51.996;4.458;2022-10-13T14:23:26;14.40;99.90
25112;DHT22;13092;51.996;4.458;2022-10-13T14:25:54;14.30;99.90
25112;DHT22;13092;51.996;4.458;2022-10-13T14:28:22;14.20;99.90
25112;DHT22;13092;51.996;4.458;2022-10-13T14:30:50;14.20;99.90
25112;DHT22;13092;51.996;4.458;2022-10-13T14:33:18;14.10;99.90
25112;DHT22;13092;51.996;4.458;2022-10-13T14:35:47;14.20;99.90
25112;DHT22;13092;51.996;4.458;2022-10-13T14:38:15;14.40;99.90
25112;DHT22;13092;51.996;4.458;2022-10-13T14:40:44;14.20;99.90
25112;DHT22;13092;51.996;4.458;2022-10-13T14:43:12;14.20;99.90
25112;DHT22;13092;51.996;4.458;2022-10-13T14:45:40;14.20;99.90
25112;DHT22;13092;51.996;4.458;2022-10-13T14:48:08;14.30;99.90
25112;DHT22;13092;51.996;4.458;2022-10-13T14:50:37;14.20;99.90
25112;DHT22;13092;51.996;4.458;2022-10-13T14:53:11;14.30;99.90
25112;DHT22;13092;51.996;4.458;2022-10-13T14:55:41;14.40;99.90
25112;DHT22;13092;51.996;4.458;2022-10-13T14:58:10;14.40;99.90
25112;DHT22;13092;51.996;4.458;2022-10-13T15:00:41;14.50;99.90
25112;DHT22;13092;51.996;4.458;2022-10-13T15:03:11;14.60;99.90
25112;DHT22;13092;51.996;4.458;2022-10-13T15:05:39;14.70;99.90
25112;DHT22;13092;51.996;4.458;2022-10-13T15:08:07;14.80;99.90
25112;DHT22;13092;51.996;4.458;2022-10-13T15:10:37;14.90;99.90
25112;DHT22;13092;51.996;4.458;2022-10-13T15:13:05;14.90;99.90
25112;DHT22;13092;51.996;4.458;2022-10-13T15:15:33;15.00;99.90
25112;DHT22;13092;51.996;4.458;2022-10-13T15:18:01;15.10;99.90
25112;DHT22;13092;51.996;4.458;2022-10-13T15:20:29;15.50;99.90
25112;DHT22;13092;51.996;4.458;2022-10-13T15:22:58;15.50;99.90
25112;DHT22;13092;51.996;4.458;2022-10-13T15:25:26;15.70;99.90
25112;DHT22;13092;51.996;4.458;2022-10-13T15:28:00;15.70;99.90
25112;DHT22;13092;51.996;4.458;2022-10-13T15:30:28;15.70;99.90
25112;DHT22;13092;51.996;4.458;2022-10-13T15:32:59;15.70;99.90
25112;DHT22;13092;51.996;4.458;2022-10-13T15:35:28;15.60;99.90
25112;DHT22;13092;51.996;4.458;2022-10-13T15:37:57;15.50;99.90
25112;DHT22;13092;51.996;4.458;2022-10-13T15:40:25;15.60;99.90
25112;DHT22;13092;51.996;4.458;2022-10-13T15:42:53;15.50;99.90
25112;DHT22;13092;51.996;4.458;2022-10-13T15:45:23;15.40;99.90
25112;DHT22;13092;51.996;4.458;2022-10-13T15:47:51;15.40;99.90
25112;DHT22;13092;51.996;4.458;2022-10-13T15:50:19;15.50;99.90
25112;DHT22;13092;51.996;4.458;2022-10-13T15:52:48;15.60;99.90
25112;DHT22;13092;51.996;4.458;2022-10-13T15:55:16;15.60;99.90
25112;DHT22;13092;51.996;4.458;2022-10-13T15:57:45;15.70;99.90
25112;DHT22;13092;51.996;4.458;2022-10-13T16:00:14;15.60;99.90
25112;DHT22;13092;51.996;4.458;2022-10-13T16:02:48;15.70;99.90
25112;DHT22;13092;51.996;4.458;2022-10-13T16:05:17;15.70;99.90
25112;DHT22;13092;51.996;4.458;2022-10-13T16:07:46;15.50;99.90
25112;DHT22;13092;51.996;4.458;2022-10-13T16:10:14;15.60;99.90
25112;DHT22;13092;51.996;4.458;2022-10-13T16:12:43;15.60;99.90
25112;DHT22;13092;51.996;4.458;2022-10-13T16:15:15;15.50;99.90
25112;DHT22;13092;51.996;4.458;2022-10-13T16:17:46;15.50;99.90
25112;DHT22;13092;51.996;4.458;2022-10-13T16:20:14;15.40;99.90
25112;DHT22;13092;51.996;4.458;2022-10-13T16:22:42;15.40;99.90
25112;DHT22;13092;51.996;4.458;2022-10-13T16:25:10;15.40;99.90
25112;DHT22;13092;51.996;4.458;2022-10-13T16:27:38;15.40;99.90
25112;DHT22;13092;51.996;4.458;2022-10-13T16:30:11;15.40;99.90
25112;DHT22;13092;51.996;4.458;2022-10-13T16:32:39;15.40;99.90
25112;DHT22;13092;51.996;4.458;2022-10-13T16:35:09;15.40;99.90
25112;DHT22;13092;51.996;4.458;2022-10-13T16:37:37;15.40;99.90
25112;DHT22;13092;51.996;4.458;2022-10-13T16:40:06;15.50;99.90
25112;DHT22;13092;51.996;4.458;2022-10-13T16:42:34;15.40;99.90
25112;DHT22;13092;51.996;4.458;2022-10-13T16:45:02;15.40;99.90
25112;DHT22;13092;51.996;4.458;2022-10-13T16:47:31;15.40;99.90
25112;DHT22;13092;51.996;4.458;2022-10-13T16:49:59;15.30;99.90
25112;DHT22;13092;51.996;4.458;2022-10-13T16:52:33;15.30;99.90
25112;DHT22;13092;51.996;4.458;2022-10-13T16:55:01;15.30;99.90
25112;DHT22;13092;51.996;4.458;2022-10-13T16:57:30;15.20;99.90
25112;DHT22;13092;51.996;4.458;2022-10-13T16:59:58;15.10;99.90
25112;DHT22;13092;51.996;4.458;2022-10-13T17:02:26;15.00;99.90
25112;DHT22;13092;51.996;4.458;2022-10-13T17:04:54;15.00;99.90
25112;DHT22;13092;51.996;4.458;2022-10-13T17:07:22;15.00;99.90
25112;DHT22;13092;51.996;4.458;2022-10-13T17:09:52;14.90;99.90
25112;DHT22;13092;51.996;4.458;2022-10-13T17:12:20;14.90;99.90
25112;DHT22;13092;51.996;4.458;2022-10-13T17:14:48;14.80;99.90
25112;DHT22;13092;51.996;4.458;2022-10-13T17:17:16;14.80;99.90
25112;DHT22;13092;51.996;4.458;2022-10-13T17:19:44;14.70;99.90
25112;DHT22;13092;51.996;4.458;2022-10-13T17:22:12;14.70;99.90
25112;DHT22;13092;51.996;4.458;2022-10-13T17:24:41;14.60;99.90
25112;DHT22;13092;51.996;4.458;2022-10-13T17:27:15;14.60;99.90
25112;DHT22;13092;51.996;4.458;2022-10-13T17:29:43;14.50;99.90
25112;DHT22;13092;51.996;4.458;2022-10-13T17:32:12;14.50;99.90
25112;DHT22;13092;51.996;4.458;2022-10-13T17:34:40;14.40;99.90
25112;DHT22;13092;51.996;4.458;2022-10-13T17:37:08;14.40;99.90
25112;DHT22;13092;51.996;4.458;2022-10-13T17:39:37;14.30;99.90
25112;DHT22;13092;51.996;4.458;2022-10-13T17:42:06;14.30;99.90
25112;DHT22;13092;51.996;4.458;2022-10-13T17:44:35;14.40;99.90
25112;DHT22;13092;51.996;4.458;2022-10-13T17:47:03;14.20;99.90
25112;DHT22;13092;51.996;4.458;2022-10-13T17:49:31;14.20;99.90
25112;DHT22;13092;51.996;4.458;2022-10-13T17:51:59;14.10;99.90
25112;DHT22;13092;51.996;4.458;2022-10-13T17:54:28;14.10;99.90
25112;DHT22;13092;51.996;4.458;2022-10-13T17:56:56;14.00;99.90
25112;DHT22;13092;51.996;4.458;2022-10-13T17:59:24;14.20;99.90
25112;DHT22;13092;51.996;4.458;2022-10-13T18:01:54;14.00;99.90
25112;DHT22;13092;51.996;4.458;2022-10-13T18:04:22;14.10;99.90
25112;DHT22;13092;51.996;4.458;2022-10-13T18:06:50;14.00;99.90
25112;DHT22;13092;51.996;4.458;2022-10-13T18:09:19;13.90;99.90
25112;DHT22;13092;51.996;4.458;2022-10-13T18:11:49;14.00;99.90
25112;DHT22;13092;51.996;4.458;2022-10-13T18:14:21;13.80;99.90
25112;DHT22;13092;51.996;4.458;2022-10-13T18:16:49;13.60;99.90
25112;DHT22;13092;51.996;4.458;2022-10-13T18:19:19;13.70;99.90
25112;DHT22;13092;51.996;4.458;2022-10-13T18:21:48;13.60;99.90
25112;DHT22;13092;51.996;4.458;2022-10-13T18:24:18;13.60;99.90
25112;DHT22;13092;51.996;4.458;2022-10-13T18:26:46;13.50;99.90
25112;DHT22;13092;51.996;4.458;2022-10-13T18:29:15;13.50;99.90
25112;DHT22;13092;51.996;4.458;2022-10-13T18:31:43;13.50;99.90
25112;DHT22;13092;51.996;4.458;2022-10-13T18:34:14;13.50;99.90
25112;DHT22;13092;51.996;4.458;2022-10-13T18:36:46;13.40;99.90
25112;DHT22;13092;51.996;4.458;2022-10-13T18:39:16;13.60;99.90
25112;DHT22;13092;51.996;4.458;2022-10-13T18:41:45;13.40;99.90
25112;DHT22;13092;51.996;4.458;2022-10-13T18:44:14;13.40;99.90
25112;DHT22;13092;51.996;4.458;2022-10-13T18:46:47;13.30;99.90
25112;DHT22;13092;51.996;4.458;2022-10-13T18:49:26;13.30;99.90
25112;DHT22;13092;51.996;4.458;2022-10-13T18:52:14;13.30;99.90
25112;DHT22;13092;51.996;4.458;2022-10-13T18:54:45;13.30;99.90
25112;DHT22;13092;51.996;4.458;2022-10-13T18:57:18;13.20;99.90
25112;DHT22;13092;51.996;4.458;2022-10-13T18:59:48;13.20;99.90
25112;DHT22;13092;51.996;4.458;2022-10-13T19:02:26;13.20;99.90
25112;DHT22;13092;51.996;4.458;2022-10-13T19:05:03;13.10;99.90
25112;DHT22;13092;51.996;4.458;2022-10-13T19:07:36;13.10;99.90
25112;DHT22;13092;51.996;4.458;2022-10-13T19:10:08;12.90;99.90
25112;DHT22;13092;51.996;4.458;2022-10-13T19:12:43;12.90;99.90
25112;DHT22;13092;51.996;4.458;2022-10-13T19:15:16;13.00;99.90
25112;DHT22;13092;51.996;4.458;2022-10-13T19:17:47;13.00;99.90
25112;DHT22;13092;51.996;4.458;2022-10-13T19:20:18;13.00;99.90
25112;DHT22;13092;51.996;4.458;2022-10-13T19:22:49;12.90;99.90
25112;DHT22;13092;51.996;4.458;2022-10-13T19:25:20;12.80;99.90
25112;DHT22;13092;51.996;4.458;2022-10-13T19:27:52;12.90;99.90
25112;DHT22;13092;51.996;4.458;2022-10-13T19:30:25;12.70;99.90
25112;DHT22;13092;51.996;4.458;2022-10-13T19:32:54;12.90;99.90
25112;DHT22;13092;51.996;4.458;2022-10-13T19:35:23;12.80;99.90
25112;DHT22;13092;51.996;4.458;2022-10-13T19:37:54;12.80;99.90
25112;DHT22;13092;51.996;4.458;2022-10-13T19:40:26;12.70;99.90
25112;DHT22;13092;51.996;4.458;2022-10-13T19:42:56;12.70;99.90
25112;DHT22;13092;51.996;4.458;2022-10-13T19:45:25;12.70;99.90
25112;DHT22;13092;51.996;4.458;2022-10-13T19:47:53;12.60;99.90
25112;DHT22;13092;51.996;4.458;2022-10-13T19:50:21;12.60;99.90
25112;DHT22;13092;51.996;4.458;2022-10-13T19:52:49;12.50;99.90
25112;DHT22;13092;51.996;4.458;2022-10-13T19:55:19;12.50;99.90
25112;DHT22;13092;51.996;4.458;2022-10-13T19:57:47;12.50;99.90
25112;DHT22;13092;51.996;4.458;2022-10-13T20:00:16;12.30;99.90
25112;DHT22;13092;51.996;4.458;2022-10-13T20:02:45;12.40;99.90
25112;DHT22;13092;51.996;4.458;2022-10-13T20:05:13;12.40;99.90
25112;DHT22;13092;51.996;4.458;2022-10-13T20:07:41;12.30;99.90
25112;DHT22;13092;51.996;4.458;2022-10-13T20:10:09;12.30;99.90
25112;DHT22;13092;51.996;4.458;2022-10-13T20:12:39;12.40;99.90
25112;DHT22;13092;51.996;4.458;2022-10-13T20:15:07;12.20;99.90
25112;DHT22;13092;51.996;4.458;2022-10-13T20:17:35;12.10;99.90
25112;DHT22;13092;51.996;4.458;2022-10-13T20:20:03;12.10;99.90
25112;DHT22;13092;51.996;4.458;2022-10-13T20:22:32;12.10;99.90
25112;DHT22;13092;51.996;4.458;2022-10-13T20:25:00;12.00;99.90
25112;DHT22;13092;51.996;4.458;2022-10-13T20:27:31;11.90;99.90
25112;DHT22;13092;51.996;4.458;2022-10-13T20:30:01;11.90;99.90
25112;DHT22;13092;51.996;4.458;2022-10-13T20:32:29;11.80;99.90
25112;DHT22;13092;51.996;4.458;2022-10-13T20:34:57;11.90;99.90
25112;DHT22;13092;51.996;4.458;2022-10-13T20:37:26;11.80;99.90
25112;DHT22;13092;51.996;4.458;2022-10-13T20:39:54;11.80;99.90
25112;DHT22;13092;51.996;4.458;2022-10-13T20:42:23;11.90;99.90
25112;DHT22;13092;51.996;4.458;2022-10-13T20:44:51;12.00;99.90
25112;DHT22;13092;51.996;4.458;2022-10-13T20:47:20;11.80;99.90
25112;DHT22;13092;51.996;4.458;2022-10-13T20:49:49;11.90;99.90
25112;DHT22;13092;51.996;4.458;2022-10-13T20:52:17;11.80;99.90
25112;DHT22;13092;51.996;4.458;2022-10-13T20:54:45;11.90;99.90
25112;DHT22;13092;51.996;4.458;2022-10-13T20:57:13;11.90;99.90
25112;DHT22;13092;51.996;4.458;2022-10-13T20:59:41;11.80;99.90
25112;DHT22;13092;51.996;4.458;2022-10-13T21:02:11;12.00;99.90
25112;DHT22;13092;51.996;4.458;2022-10-13T21:04:41;12.00;99.90
25112;DHT22;13092;51.996;4.458;2022-10-13T21:07:09;12.10;99.90